Time;durP1;ratioP1;P1;durP2;ratioP2;P2;SDS_P1;SDS_P2;PMS_P1;PMS_P2;Temp;Humidity;BMP_temperature;BMP_pressure;BME280_temperature;BME280_humidity;BME280_pressure;Samples;Min_cycle;Max_cycle;Signal;HPM_P1;HPM_P2
2023/06/21 00:02:20;;;;;;;5.47;1.77;;;21.60;99.90;;;;;;4997202;28;20178;-79
2023/06/21 00:04:45;;;;;;;6.00;1.80;;;21.60;99.90;;;;;;4996567;28;20175;-79
2023/06/21 00:07:11;;;;;;;11.50;2.90;;;21.50;99.90;;;;;;4996806;28;20252;-82
2023/06/21 00:09:36;;;;;;;6.47;1.20;;;21.50;99.90;;;;;;4995543;28;20180;-79
2023/06/21 00:12:02;;;;;;;5.33;1.07;;;21.50;99.90;;;;;;4996803;28;20192;-78
2023/06/21 00:14:28;;;;;;;15.43;2.20;;;21.50;99.90;;;;;;4996461;28;20625;-81
2023/06/21 00:16:53;;;;;;;5.97;1.23;;;21.40;99.90;;;;;;4996742;28;20179;-78
2023/06/21 00:19:19;;;;;;;4.03;1.10;;;21.40;99.90;;;;;;4993285;28;20207;-78
2023/06/21 00:21:44;;;;;;;3.40;1.03;;;21.40;99.90;;;;;;4987303;28;20183;-80
2023/06/21 00:24:10;;;;;;;1.77;0.70;;;21.40;99.90;;;;;;4979803;28;20187;-81
2023/06/21 00:26:35;;;;;;;2.20;0.40;;;21.50;99.90;;;;;;4977348;28;20173;-79
2023/06/21 00:29:01;;;;;;;3.80;0.90;;;21.40;99.90;;;;;;4977199;28;20206;-87
2023/06/21 00:31:26;;;;;;;2.60;1.03;;;21.40;99.90;;;;;;4976932;28;20212;-82
2023/06/21 00:33:52;;;;;;;2.07;0.70;;;21.40;99.90;;;;;;4976684;28;20173;-83
2023/06/21 00:36:17;;;;;;;3.30;0.83;;;21.50;99.90;;;;;;4976694;28;20178;-90
2023/06/21 00:38:43;;;;;;;1.53;0.70;;;21.50;99.90;;;;;;4977038;28;20175;-82
2023/06/21 00:41:09;;;;;;;3.57;1.00;;;21.40;99.90;;;;;;4976906;28;20184;-80
2023/06/21 00:43:34;;;;;;;2.50;0.70;;;21.40;99.90;;;;;;4976895;28;20632;-78
2023/06/21 00:46:00;;;;;;;3.53;0.90;;;21.40;99.90;;;;;;4976887;28;20412;-85
2023/06/21 00:48:28;;;;;;;4.23;0.60;;;21.40;99.90;;;;;;4976475;28;20532;-82
2023/06/21 00:50:55;;;;;;;2.80;0.80;;;21.40;99.90;;;;;;4976720;28;20209;-85
2023/06/21 00:53:21;;;;;;;2.27;0.40;;;21.40;99.90;;;;;;4976604;28;20408;-78
2023/06/21 00:55:47;;;;;;;4.07;0.87;;;21.40;99.90;;;;;;4976536;28;20422;-88
2023/06/21 00:58:14;;;;;;;3.50;1.30;;;21.50;99.90;;;;;;4976598;28;20415;-78
2023/06/21 01:00:41;;;;;;;3.43;0.87;;;21.40;99.90;;;;;;4976449;28;20431;-79
2023/06/21 01:03:06;;;;;;;2.70;0.70;;;21.40;99.90;;;;;;4976248;28;20885;-78
2023/06/21 01:05:36;;;;;;;3.30;0.50;;;21.40;99.90;;;;;;4991319;28;20486;-78
2023/06/21 01:08:37;;;;;;;3.10;0.60;;;21.40;99.90;;;;;;4976252;28;20204;-78
2023/06/21 01:11:26;;;;;;;2.10;0.40;;;21.40;99.90;;;;;;4976177;28;20580;-78
2023/06/21 01:14:29;;;;;;;3.03;0.40;;;21.40;99.90;;;;;;4976350;28;20420;-79
2023/06/21 01:16:56;;;;;;;2.13;0.43;;;21.40;99.90;;;;;;4979687;28;20482;-79
2023/06/21 01:19:41;;;;;;;0.87;0.20;;;21.30;99.90;;;;;;4976074;28;20415;-78
2023/06/21 01:22:34;;;;;;;2.43;0.63;;;21.20;99.90;;;;;;4976125;28;20423;-78
2023/06/21 01:25:41;;;;;;;1.70;0.43;;;21.10;99.90;;;;;;4975968;28;20422;-79
2023/06/21 01:28:45;;;;;;;4.20;0.90;;;21.00;99.90;;;;;;4974770;28;20424;-79
2023/06/21 01:31:15;;;;;;;4.23;0.50;;;21.00;99.90;;;;;;4975927;28;20905;-80
2023/06/21 01:33:41;;;;;;;1.70;0.50;;;21.00;99.90;;;;;;4975565;28;20425;-80
2023/06/21 01:36:10;;;;;;;4.53;0.93;;;21.00;99.90;;;;;;4975800;28;20451;-79
2023/06/21 01:38:38;;;;;;;2.97;0.60;;;21.00;99.90;;;;;;4975875;28;20419;-86
2023/06/21 01:41:06;;;;;;;1.60;0.50;;;21.00;99.90;;;;;;4975792;28;20891;-83
2023/06/21 01:43:31;;;;;;;1.00;0.40;;;21.10;99.90;;;;;;4990722;28;20416;-80
2023/06/21 01:45:59;;;;;;;4.30;1.90;;;21.00;99.90;;;;;;4975708;28;20424;-80
2023/06/21 01:48:25;;;;;;;3.00;1.33;;;21.00;99.90;;;;;;4975230;28;20239;-81
2023/06/21 01:50:52;;;;;;;3.70;0.80;;;21.00;99.90;;;;;;4975463;28;20573;-80
2023/06/21 01:53:18;;;;;;;3.60;1.00;;;21.00;99.90;;;;;;4975602;28;20241;-80
2023/06/21 01:55:48;;;;;;;2.70;0.60;;;21.00;99.90;;;;;;4975670;28;20514;-92
2023/06/21 01:58:16;;;;;;;2.53;0.87;;;21.10;99.90;;;;;;4975639;28;20780;-81
2023/06/21 02:00:42;;;;;;;2.20;0.80;;;21.10;99.90;;;;;;4975346;28;20419;-89
2023/06/21 02:03:10;;;;;;;2.07;0.37;;;21.10;99.90;;;;;;4975106;28;20466;-78
2023/06/21 02:05:35;;;;;;;1.47;0.80;;;21.10;99.90;;;;;;4975619;28;20451;-91
2023/06/21 02:08:04;;;;;;;5.70;0.90;;;21.10;99.90;;;;;;4975551;28;20435;-80
2023/06/21 02:10:30;;;;;;;4.00;0.80;;;21.10;99.90;;;;;;4975617;28;20250;-80
2023/06/21 02:12:56;;;;;;;1.53;0.60;;;21.10;99.90;;;;;;4975483;28;20419;-80
2023/06/21 02:15:23;;;;;;;4.53;1.20;;;21.10;99.90;;;;;;4990420;28;20485;-80
2023/06/21 02:17:51;;;;;;;1.87;1.03;;;21.10;99.90;;;;;;4975088;28;20169;-80
2023/06/21 02:20:18;;;;;;;2.60;1.53;;;21.20;99.90;;;;;;4975373;28;20503;-81
2023/06/21 02:22:44;;;;;;;2.83;0.90;;;21.20;99.90;;;;;;4974700;28;20408;-94
2023/06/21 02:25:10;;;;;;;2.47;0.40;;;21.20;99.90;;;;;;4975529;28;20419;-85
2023/06/21 02:27:36;;;;;;;3.13;1.10;;;21.20;99.90;;;;;;4975328;28;20436;-90
2023/06/21 02:30:03;;;;;;;1.83;1.03;;;21.20;99.90;;;;;;4976195;28;20459;-80
2023/06/21 02:32:29;;;;;;;2.47;1.00;;;21.20;99.90;;;;;;4990588;28;20934;-80
2023/06/21 02:34:54;;;;;;;2.30;1.30;;;21.20;99.90;;;;;;4975831;28;20408;-90
2023/06/21 02:37:20;;;;;;;1.60;1.10;;;21.20;99.90;;;;;;4975166;28;20169;-78
2023/06/21 02:39:45;;;;;;;5.13;1.37;;;21.20;99.90;;;;;;4974859;28;20167;-80
2023/06/21 02:42:11;;;;;;;2.53;1.43;;;21.20;99.90;;;;;;4974633;28;20230;-89
2023/06/21 02:44:36;;;;;;;3.80;0.80;;;21.20;99.90;;;;;;4974657;28;20184;-79
2023/06/21 02:47:04;;;;;;;4.53;1.30;;;21.20;99.90;;;;;;4974615;28;20188;-78
2023/06/21 02:49:35;;;;;;;3.17;1.40;;;21.20;99.90;;;;;;4974188;28;20332;-78
2023/06/21 02:52:00;;;;;;;2.60;1.10;;;21.20;99.90;;;;;;4974545;28;20436;-78
2023/06/21 02:54:28;;;;;;;3.00;1.63;;;21.20;99.90;;;;;;4974525;28;20908;-78
2023/06/21 02:56:53;;;;;;;2.43;1.43;;;21.20;99.90;;;;;;4974489;28;20684;-78
2023/06/21 02:59:22;;;;;;;4.67;1.73;;;21.20;99.90;;;;;;4974290;28;20505;-78
2023/06/21 03:01:50;;;;;;;3.40;1.60;;;21.20;99.90;;;;;;4974295;28;20239;-78
2023/06/21 03:04:18;;;;;;;2.33;1.50;;;21.20;99.90;;;;;;4972848;28;20419;-88
2023/06/21 03:06:44;;;;;;;3.37;1.60;;;21.20;99.90;;;;;;4974291;28;20411;-89
2023/06/21 03:09:10;;;;;;;5.63;1.97;;;21.20;99.90;;;;;;4974279;28;20419;-80
2023/06/21 03:11:35;;;;;;;2.27;1.07;;;21.20;99.90;;;;;;4974302;28;20475;-78
2023/06/21 03:14:01;;;;;;;5.80;1.97;;;21.20;99.90;;;;;;4974346;28;20175;-78
2023/06/21 03:16:26;;;;;;;3.40;1.47;;;21.10;99.90;;;;;;4974136;28;20647;-78
2023/06/21 03:18:52;;;;;;;3.07;1.47;;;21.10;99.90;;;;;;4973982;28;20676;-83
2023/06/21 03:21:17;;;;;;;4.00;1.93;;;21.00;99.90;;;;;;4974189;28;20641;-89
2023/06/21 03:23:43;;;;;;;2.90;1.90;;;21.00;99.90;;;;;;4974560;28;20183;-79
2023/06/21 03:26:09;;;;;;;4.70;2.30;;;20.90;99.90;;;;;;4974514;28;20171;-79
2023/06/21 03:28:34;;;;;;;3.60;1.97;;;20.90;99.90;;;;;;4974252;28;20412;-78
2023/06/21 03:31:00;;;;;;;6.60;2.43;;;20.90;99.90;;;;;;4974035;28;20212;-86
2023/06/21 03:33:27;;;;;;;4.20;1.90;;;20.80;99.90;;;;;;4973718;28;20531;-80
2023/06/21 03:35:52;;;;;;;3.53;2.17;;;20.80;99.90;;;;;;4976380;28;20180;-79
2023/06/21 03:38:18;;;;;;;3.67;2.50;;;20.80;99.90;;;;;;4976726;28;20416;-79
2023/06/21 03:40:44;;;;;;;2.67;2.43;;;20.80;99.90;;;;;;4978043;28;20258;-82
2023/06/21 03:43:10;;;;;;;5.10;2.20;;;20.80;99.90;;;;;;4978050;28;20416;-79
2023/06/21 03:45:35;;;;;;;5.00;2.70;;;20.80;99.90;;;;;;4977974;28;20195;-80
2023/06/21 03:48:04;;;;;;;4.50;3.10;;;20.90;99.90;;;;;;4977512;28;20649;-81
2023/06/21 03:50:30;;;;;;;5.73;2.47;;;20.90;99.90;;;;;;4977780;28;20211;-80
2023/06/21 03:52:55;;;;;;;4.57;2.80;;;20.90;99.90;;;;;;4977933;28;20420;-81
2023/06/21 03:55:21;;;;;;;4.07;3.13;;;20.90;99.90;;;;;;4977766;28;20835;-80
2023/06/21 03:57:46;;;;;;;4.13;2.63;;;20.90;99.90;;;;;;4977813;28;20525;-80
2023/06/21 04:00:13;;;;;;;3.20;2.40;;;21.00;99.90;;;;;;4977720;28;20223;-85
2023/06/21 04:02:39;;;;;;;5.70;3.43;;;21.00;99.90;;;;;;4977326;28;20513;-80
2023/06/21 04:05:05;;;;;;;5.43;3.37;;;21.00;99.90;;;;;;4977592;28;20416;-81
2023/06/21 04:07:30;;;;;;;5.43;3.90;;;21.10;99.90;;;;;;4977531;28;20174;-80
2023/06/21 04:09:56;;;;;;;5.90;3.67;;;21.10;99.90;;;;;;4977377;28;20454;-81
2023/06/21 04:12:22;;;;;;;7.63;5.07;;;21.20;99.90;;;;;;4979111;28;20189;-80
2023/06/21 04:14:47;;;;;;;5.03;3.70;;;21.20;99.90;;;;;;4996771;28;20215;-81
2023/06/21 04:17:12;;;;;;;7.70;5.10;;;21.30;99.90;;;;;;4996597;28;20529;-85
2023/06/21 04:19:38;;;;;;;7.60;4.70;;;21.30;99.90;;;;;;4996884;28;20229;-92
2023/06/21 04:22:04;;;;;;;10.90;6.30;;;21.30;99.90;;;;;;4996903;28;20259;-89
2023/06/21 04:24:30;;;;;;;8.33;5.00;;;21.40;99.90;;;;;;4996879;28;20183;-81
2023/06/21 04:26:58;;;;;;;9.50;6.33;;;21.50;99.90;;;;;;4996891;28;20322;-80
2023/06/21 04:29:23;;;;;;;12.90;6.73;;;21.50;99.90;;;;;;4996721;28;20427;-80
2023/06/21 04:31:51;;;;;;;9.77;6.97;;;21.60;99.90;;;;;;4996668;28;20480;-80
2023/06/21 04:34:17;;;;;;;12.67;8.60;;;21.60;99.90;;;;;;5011537;28;20658;-80
2023/06/21 04:36:49;;;;;;;9.13;7.03;;;21.70;99.90;;;;;;4997090;28;20461;-81
2023/06/21 04:39:18;;;;;;;12.63;9.77;;;21.70;99.90;;;;;;4996666;28;20179;-80
2023/06/21 04:41:51;;;;;;;11.87;7.53;;;21.70;99.90;;;;;;5011466;28;20424;-90
2023/06/21 04:44:17;;;;;;;9.60;7.47;;;21.70;99.90;;;;;;4996354;28;20935;-84
2023/06/21 04:46:47;;;;;;;8.73;7.60;;;21.80;99.90;;;;;;4995794;28;20406;-81
2023/06/21 04:49:17;;;;;;;9.60;8.40;;;21.80;99.90;;;;;;4996236;28;20169;-80
2023/06/21 04:51:43;;;;;;;11.97;8.30;;;21.80;99.90;;;;;;4996280;28;20462;-82
2023/06/21 04:54:08;;;;;;;9.23;7.73;;;21.80;99.90;;;;;;4996039;28;20420;-81
2023/06/21 04:56:35;;;;;;;7.93;6.73;;;21.90;99.90;;;;;;4996280;28;20507;-85
2023/06/21 04:59:01;;;;;;;9.63;6.73;;;22.00;99.90;;;;;;4996190;28;20172;-84
2023/06/21 05:01:27;;;;;;;9.90;7.53;;;22.10;99.90;;;;;;4996393;28;20875;-84
2023/06/21 05:03:53;;;;;;;13.87;8.00;;;22.10;99.90;;;;;;4996026;28;20503;-86
2023/06/21 05:06:22;;;;;;;9.50;8.33;;;22.20;99.90;;;;;;4996964;28;20277;-81
2023/06/21 05:08:48;;;;;;;8.60;7.20;;;22.20;99.90;;;;;;4998861;28;20221;-81
2023/06/21 05:11:14;;;;;;;12.80;11.47;;;22.30;99.90;;;;;;4996875;28;20488;-80
2023/06/21 05:13:39;;;;;;;9.53;7.73;;;22.30;99.90;;;;;;4998078;28;20235;-83
2023/06/21 05:16:05;;;;;;;10.50;8.30;;;22.40;99.90;;;;;;5012152;28;20231;-87
2023/06/21 05:18:30;;;;;;;9.20;8.07;;;22.40;99.90;;;;;;4995463;28;20660;-79
2023/06/21 05:20:56;;;;;;;11.27;7.87;;;22.40;99.90;;;;;;4995437;28;20255;-80
2023/06/21 05:23:21;;;;;;;11.50;7.53;;;22.30;99.90;;;;;;4995458;28;20603;-79
2023/06/21 05:25:47;;;;;;;10.30;7.97;;;22.30;99.90;;;;;;4995331;28;20174;-75
2023/06/21 05:28:12;;;;;;;9.10;8.20;;;22.30;99.90;;;;;;4995338;28;20183;-79
2023/06/21 05:30:38;;;;;;;8.03;7.20;;;22.40;99.90;;;;;;4995249;28;20211;-78
2023/06/21 05:33:03;;;;;;;10.77;7.40;;;22.40;99.90;;;;;;4994899;28;20228;-79
2023/06/21 05:35:29;;;;;;;9.27;8.07;;;22.40;99.90;;;;;;4995152;28;20173;-78
2023/06/21 05:37:55;;;;;;;8.10;7.30;;;22.40;99.90;;;;;;4995060;28;20231;-77
2023/06/21 05:40:20;;;;;;;10.07;8.33;;;22.40;99.90;;;;;;4994281;28;20257;-78
2023/06/21 05:42:48;;;;;;;11.10;9.80;;;22.40;99.90;;;;;;5009370;28;20176;-78
2023/06/21 05:45:14;;;;;;;12.23;10.20;;;22.40;99.90;;;;;;4994720;28;20169;-80
2023/06/21 05:47:39;;;;;;;13.00;11.60;;;22.40;99.90;;;;;;5009750;28;20473;-81
2023/06/21 05:50:05;;;;;;;14.60;12.67;;;22.20;99.90;;;;;;4994692;28;20669;-78
2023/06/21 05:52:31;;;;;;;14.97;13.40;;;22.10;99.90;;;;;;4994694;28;20267;-78
2023/06/21 05:54:56;;;;;;;18.27;16.43;;;22.10;99.90;;;;;;4994730;28;20447;-80
2023/06/21 05:57:24;;;;;;;15.57;13.87;;;22.20;99.90;;;;;;4993871;28;20235;-78
2023/06/21 05:59:50;;;;;;;17.80;16.00;;;22.30;99.90;;;;;;4994667;28;20176;-78
2023/06/21 06:02:16;;;;;;;17.00;15.27;;;22.20;99.90;;;;;;4994287;28;20855;-78
2023/06/21 06:04:41;;;;;;;19.00;16.97;;;22.30;99.90;;;;;;4994608;28;20930;-78
2023/06/21 06:07:17;;;;;;;18.50;16.40;;;22.30;99.90;;;;;;4994611;28;20422;-78
2023/06/21 06:09:50;;;;;;;19.10;17.20;;;22.30;99.90;;;;;;4994492;28;20181;-78
2023/06/21 06:12:17;;;;;;;19.00;17.03;;;22.50;99.90;;;;;;4994497;28;20412;-78
2023/06/21 06:14:43;;;;;;;18.63;15.93;;;22.50;99.90;;;;;;4994265;28;20460;-78
2023/06/21 06:17:30;;;;;;;18.67;16.73;;;22.60;99.90;;;;;;4994056;28;20444;-78
2023/06/21 06:19:55;;;;;;;20.60;18.40;;;22.70;99.90;;;;;;4993138;28;20434;-78
2023/06/21 06:22:21;;;;;;;20.40;16.30;;;22.70;99.90;;;;;;4994272;28;20425;-78
2023/06/21 06:24:48;;;;;;;21.40;18.07;;;22.70;99.90;;;;;;4994385;28;20181;-78
2023/06/21 06:27:14;;;;;;;21.07;18.77;;;22.80;99.90;;;;;;4994181;28;20208;-79
2023/06/21 06:29:40;;;;;;;20.37;17.47;;;22.80;99.90;;;;;;4994210;28;20429;-79
2023/06/21 06:32:05;;;;;;;19.73;17.63;;;22.80;99.90;;;;;;4993786;28;20264;-78
2023/06/21 06:34:31;;;;;;;19.93;17.83;;;22.90;99.90;;;;;;4994024;28;20421;-78
2023/06/21 06:36:56;;;;;;;18.77;16.77;;;23.10;99.90;;;;;;4994218;28;20650;-78
2023/06/21 06:39:22;;;;;;;21.07;18.90;;;23.30;99.90;;;;;;4993873;28;20659;-78
2023/06/21 06:41:50;;;;;;;20.50;18.40;;;23.50;99.90;;;;;;4993803;28;20220;-78
2023/06/21 06:44:16;;;;;;;20.10;17.30;;;23.60;99.90;;;;;;4993980;28;20178;-78
2023/06/21 06:46:41;;;;;;;19.47;16.80;;;23.80;99.90;;;;;;4993646;28;20548;-78
2023/06/21 06:49:07;;;;;;;18.93;16.93;;;24.10;99.90;;;;;;4993885;28;20269;-78
2023/06/21 06:51:32;;;;;;;18.13;16.30;;;24.40;99.90;;;;;;4993938;28;20233;-86
2023/06/21 06:53:58;;;;;;;19.63;17.53;;;24.60;99.90;;;;;;4985520;28;20171;-93
2023/06/21 06:56:23;;;;;;;18.43;16.40;;;24.60;99.90;;;;;;4987185;28;20179;-83
2023/06/21 06:58:49;;;;;;;17.50;15.70;;;24.70;99.90;;;;;;4985158;28;20167;-83
2023/06/21 07:01:15;;;;;;;17.07;15.43;;;25.00;99.90;;;;;;4986356;28;20179;-83
2023/06/21 07:03:40;;;;;;;15.67;14.27;;;25.20;99.90;;;;;;4984330;28;20176;-82
2023/06/21 07:06:06;;;;;;;16.20;14.60;;;25.40;99.90;;;;;;4990248;28;20427;-86
2023/06/21 07:08:31;;;;;;;15.80;14.20;;;25.70;95.70;;;;;;4993596;28;20167;-85
2023/06/21 07:10:57;;;;;;;15.03;13.37;;;25.90;1.00;;;;;;4993681;28;20249;-82
2023/06/21 07:13:23;;;;;;;16.33;14.90;;;25.90;1.00;;;;;;4984968;28;20227;-84
2023/06/21 07:15:49;;;;;;;14.63;13.13;;;25.80;1.00;;;;;;4972840;28;20224;-83
2023/06/21 07:18:14;;;;;;;13.97;12.33;;;26.00;1.00;;;;;;4975199;28;20895;-82
2023/06/21 07:20:41;;;;;;;13.90;12.70;;;26.30;1.00;;;;;;4975169;28;20620;-82
2023/06/21 07:23:09;;;;;;;13.70;12.27;;;26.60;99.90;;;;;;4974783;28;20160;-82
2023/06/21 07:25:35;;;;;;;14.23;12.93;;;26.50;1.00;;;;;;4975278;28;20563;-89
2023/06/21 07:28:02;;;;;;;14.70;13.40;;;26.50;1.00;;;;;;4978323;28;20447;-90
2023/06/21 07:30:28;;;;;;;15.10;13.50;;;26.50;99.90;;;;;;4975819;28;20727;-85
2023/06/21 07:32:53;;;;;;;14.60;13.30;;;26.30;1.00;;;;;;4974024;28;20423;-82
2023/06/21 07:35:19;;;;;;;14.80;13.47;;;26.30;1.00;;;;;;4973447;28;20176;-86
2023/06/21 07:37:45;;;;;;;14.60;13.03;;;26.30;99.90;;;;;;4974056;28;20543;-86
2023/06/21 07:40:12;;;;;;;14.83;13.63;;;26.40;1.00;;;;;;4974155;28;20568;-84
2023/06/21 07:42:38;;;;;;;14.10;12.90;;;26.90;99.90;;;;;;4974033;28;20434;-88
2023/06/21 07:45:05;;;;;;;13.80;12.60;;;27.30;1.00;;;;;;4972688;28;20424;-85
2023/06/21 07:47:31;;;;;;;13.87;12.57;;;27.30;1.00;;;;;;4973460;28;20239;-85
2023/06/21 07:49:57;;;;;;;13.60;12.40;;;27.50;1.00;;;;;;4973835;28;20412;-87
2023/06/21 07:52:22;;;;;;;13.93;12.73;;;27.60;1.00;;;;;;4972558;28;20424;-86
2023/06/21 07:54:49;;;;;;;13.93;12.73;;;27.70;21.70;;;;;;4973941;28;20192;-91
2023/06/21 07:57:16;;;;;;;13.47;12.40;;;27.80;99.90;;;;;;4973959;28;20234;-82
2023/06/21 07:59:41;;;;;;;13.37;12.27;;;28.10;1.00;;;;;;4973843;28;20498;-85
2023/06/21 08:02:07;;;;;;;14.73;13.43;;;28.20;99.90;;;;;;4973438;28;20523;-81
2023/06/21 08:04:32;;;;;;;11.60;10.53;;;28.30;1.00;;;;;;4972559;28;20165;-84
2023/06/21 08:06:58;;;;;;;13.30;12.10;;;28.70;1.00;;;;;;4973742;28;20193;-87
2023/06/21 08:09:23;;;;;;;13.00;11.80;;;29.00;99.90;;;;;;4973586;28;20634;-84
2023/06/21 08:11:49;;;;;;;12.50;11.60;;;29.30;99.90;;;;;;4973458;28;20295;-82
2023/06/21 08:14:14;;;;;;;12.90;11.80;;;29.60;99.90;;;;;;4972341;28;20173;-84
2023/06/21 08:16:40;;;;;;;12.70;11.60;;;29.60;99.90;;;;;;4973062;28;20298;-86
2023/06/21 08:19:05;;;;;;;12.10;10.97;;;29.30;99.90;;;;;;4973698;28;20173;-89
2023/06/21 08:21:31;;;;;;;12.90;11.90;;;29.00;99.90;;;;;;4976354;28;20630;-85
2023/06/21 08:23:56;;;;;;;13.50;12.20;;;28.50;99.90;;;;;;4977104;28;20299;-82
2023/06/21 08:26:22;;;;;;;13.03;12.00;;;28.30;99.90;;;;;;4977037;28;20172;-83
2023/06/21 08:28:47;;;;;;;12.20;11.23;;;28.40;99.90;;;;;;4973484;28;20639;-84
2023/06/21 08:31:14;;;;;;;12.30;11.30;;;28.60;99.90;;;;;;4995223;28;20761;-81
2023/06/21 08:33:39;;;;;;;11.47;10.57;;;28.90;99.90;;;;;;4994915;28;20163;-82
2023/06/21 08:36:06;;;;;;;11.50;10.37;;;29.30;99.90;;;;;;4995312;28;20779;-85
2023/06/21 08:38:33;;;;;;;10.00;9.20;;;29.50;99.90;;;;;;4995331;28;20171;-82
2023/06/21 08:41:02;;;;;;;9.60;8.80;;;30.00;99.90;;;;;;4993974;28;20431;-83
2023/06/21 08:43:28;;;;;;;10.27;9.47;;;30.20;98.40;;;;;;4995180;28;20411;-87
2023/06/21 08:45:56;;;;;;;10.07;9.17;;;30.40;71.00;;;;;;4995196;28;20422;-84
2023/06/21 08:48:22;;;;;;;9.67;8.80;;;30.30;44.90;;;;;;4993514;28;20510;-84
2023/06/21 08:50:49;;;;;;;10.50;9.60;;;30.10;58.70;;;;;;4993946;28;20886;-85
2023/06/21 08:53:22;;;;;;;10.43;9.43;;;30.30;71.20;;;;;;4995017;28;20418;-84
2023/06/21 08:55:48;;;;;;;9.13;8.43;;;30.60;42.70;;;;;;4995146;28;20458;-83
2023/06/21 08:58:18;;;;;;;10.27;9.37;;;30.20;27.80;;;;;;4994446;28;20911;-82
2023/06/21 09:00:53;;;;;;;9.70;8.87;;;29.80;37.00;;;;;;4995540;28;20430;-82
2023/06/21 09:03:24;;;;;;;10.00;8.97;;;29.50;56.70;;;;;;4994868;28;20438;-84
2023/06/21 09:06:10;;;;;;;10.00;8.83;;;29.40;95.80;;;;;;4993106;28;20427;-82
2023/06/21 09:08:37;;;;;;;9.23;8.30;;;29.30;99.90;;;;;;4995043;28;20473;-82
2023/06/21 09:11:03;;;;;;;8.37;7.63;;;28.90;73.80;;;;;;4994684;28;20477;-83
2023/06/21 09:13:31;;;;;;;8.83;8.03;;;28.50;82.10;;;;;;4994566;28;20415;-84
2023/06/21 09:15:58;;;;;;;8.53;7.73;;;28.40;99.90;;;;;;4993269;28;20482;-89
2023/06/21 09:18:25;;;;;;;7.27;6.70;;;28.70;99.90;;;;;;4994252;28;20742;-82
2023/06/21 09:20:51;;;;;;;7.20;6.60;;;29.10;76.20;;;;;;4994315;28;20399;-83
2023/06/21 09:23:17;;;;;;;7.27;6.67;;;29.40;90.40;;;;;;4994468;28;20418;-82
2023/06/21 09:25:44;;;;;;;9.13;8.23;;;29.40;27.30;;;;;;4994239;28;20172;-79
2023/06/21 09:28:11;;;;;;;8.80;7.90;;;29.70;27.00;;;;;;4994420;28;20915;-82
2023/06/21 09:30:36;;;;;;;8.57;7.87;;;30.30;35.20;;;;;;4994205;28;21001;-82
2023/06/21 09:33:02;;;;;;;7.07;6.47;;;30.80;20.70;;;;;;4993929;28;20430;-84
2023/06/21 09:35:28;;;;;;;8.20;7.40;;;31.30;8.50;;;;;;4991078;28;20175;-86
2023/06/21 09:37:53;;;;;;;7.00;6.33;;;31.60;1.00;;;;;;4982860;28;20637;-81
2023/06/21 09:40:19;;;;;;;7.83;7.13;;;32.00;1.00;;;;;;4984321;28;20200;-81
2023/06/21 09:42:45;;;;;;;7.27;6.57;;;32.40;1.00;;;;;;4982805;28;20172;-79
2023/06/21 09:45:20;;;;;;;8.63;7.90;;;32.80;1.00;;;;;;4984350;28;20179;-81
2023/06/21 09:47:46;;;;;;;7.67;6.93;;;32.70;1.00;;;;;;4984201;28;20415;-82
2023/06/21 09:50:12;;;;;;;8.17;7.30;;;32.60;1.00;;;;;;4983088;28;20542;-84
2023/06/21 09:52:43;;;;;;;8.00;7.20;;;32.30;1.00;;;;;;4983347;28;20855;-83
2023/06/21 09:55:13;;;;;;;8.60;7.73;;;32.10;1.00;;;;;;4984373;28;20411;-82
2023/06/21 09:57:38;;;;;;;8.23;7.43;;;32.00;1.00;;;;;;4983997;28;20416;-80
2023/06/21 10:00:05;;;;;;;7.00;6.40;;;31.60;1.00;;;;;;4981358;28;20482;-80
2023/06/21 10:02:39;;;;;;;7.90;7.10;;;31.20;1.00;;;;;;4973937;28;20264;-81
2023/06/21 10:05:04;;;;;;;8.40;7.60;;;30.70;1.00;;;;;;4974195;28;20452;-80
2023/06/21 10:07:30;;;;;;;9.20;7.47;;;30.40;1.00;;;;;;4974225;28;20904;-81
2023/06/21 10:09:55;;;;;;;7.60;7.00;;;30.60;1.00;;;;;;4991231;28;20179;-84
2023/06/21 10:12:22;;;;;;;8.07;7.37;;;30.90;1.00;;;;;;4993039;28;20585;-81
2023/06/21 10:14:50;;;;;;;7.80;5.97;;;30.60;1.00;;;;;;4993221;28;20233;-79
2023/06/21 10:17:16;;;;;;;6.43;5.83;;;30.30;1.00;;;;;;4993200;28;20784;-80
2023/06/21 10:19:43;;;;;;;7.83;7.07;;;30.50;1.00;;;;;;4992272;28;20510;-82
2023/06/21 10:22:10;;;;;;;6.90;6.30;;;30.80;1.00;;;;;;4993409;28;20411;-81
2023/06/21 10:24:44;;;;;;;7.10;6.40;;;31.20;1.00;;;;;;4993107;28;20411;-82
2023/06/21 10:27:10;;;;;;;7.47;6.67;;;31.70;1.00;;;;;;4993521;28;20418;-92
2023/06/21 10:29:38;;;;;;;6.10;5.60;;;32.20;1.00;;;;;;4993560;28;20437;-87
2023/06/21 10:32:08;;;;;;;6.03;5.50;;;32.40;1.00;;;;;;4992843;28;20482;-84
2023/06/21 10:35:03;;;;;;;7.07;6.47;;;32.90;1.00;;;;;;4991696;28;20422;-83
2023/06/21 10:37:37;;;;;;;6.30;5.70;;;32.90;1.00;;;;;;4992994;28;20454;-85
2023/06/21 10:40:06;;;;;;;5.30;4.80;;;32.90;1.00;;;;;;4991844;28;20461;-83
2023/06/21 10:42:32;;;;;;;6.60;5.60;;;33.20;1.00;;;;;;4992685;28;20415;-90
2023/06/21 10:44:59;;;;;;;5.07;4.67;;;33.40;1.00;;;;;;4993010;28;20477;-87
2023/06/21 10:47:26;;;;;;;5.50;5.00;;;33.20;1.00;;;;;;4993690;28;20460;-89
2023/06/21 10:49:56;;;;;;;6.87;5.73;;;33.10;1.00;;;;;;4993685;28;20513;-90
2023/06/21 10:52:23;;;;;;;5.80;5.30;;;32.90;1.00;;;;;;4993328;28;20426;-91
2023/06/21 10:54:50;;;;;;;5.60;5.03;;;33.10;1.00;;;;;;4993929;28;20896;-88
2023/06/21 10:57:17;;;;;;;7.53;5.67;;;33.10;1.00;;;;;;4994587;28;20434;-94
2023/06/21 10:59:43;;;;;;;5.40;4.90;;;33.00;1.00;;;;;;4993345;28;20419;-89
2023/06/21 11:02:08;;;;;;;5.07;4.67;;;33.30;1.00;;;;;;4994170;28;20790;-89
2023/06/21 11:05:11;;;;;;;5.80;5.20;;;33.20;1.00;;;;;;4993157;28;20505;-93
2023/06/21 11:07:37;;;;;;;6.47;5.80;;;33.20;1.00;;;;;;4994241;28;20164;-88
2023/06/21 11:10:04;;;;;;;7.07;4.23;;;33.20;1.00;;;;;;4994561;28;20403;-91
2023/06/21 11:12:30;;;;;;;4.20;3.80;;;33.20;1.00;;;;;;4994287;28;20558;-90
2023/06/21 11:14:57;;;;;;;4.70;3.80;;;33.10;1.00;;;;;;4994196;28;20817;-85
2023/06/21 11:17:24;;;;;;;3.73;3.43;;;33.10;1.00;;;;;;4994045;28;20179;-90
2023/06/21 11:19:49;;;;;;;3.80;3.43;;;33.20;1.00;;;;;;5009917;28;20426;-84
2023/06/21 11:22:17;;;;;;;3.83;3.33;;;33.10;1.00;;;;;;4994493;28;20415;-89
2023/06/21 11:25:00;;;;;;;4.03;3.73;;;33.50;1.00;;;;;;4994648;28;20198;-91
2023/06/21 11:27:28;;;;;;;3.53;3.23;;;33.60;1.00;;;;;;4993983;28;20768;-89
2023/06/21 11:30:09;;;;;;;5.57;4.17;;;33.70;1.00;;;;;;4994351;28;20403;-82
2023/06/21 11:32:37;;;;;;;5.43;3.70;;;33.50;1.00;;;;;;4993045;28;20513;-83
2023/06/21 11:35:08;;;;;;;3.80;3.20;;;33.10;1.00;;;;;;4988823;28;20442;-83
2023/06/21 11:37:47;;;;;;;4.70;4.30;;;33.00;1.00;;;;;;4992527;28;20427;-83
2023/06/21 11:40:15;;;;;;;4.10;3.30;;;32.90;1.00;;;;;;4972984;28;20428;-87
2023/06/21 11:42:45;;;;;;;4.70;3.73;;;32.90;1.00;;;;;;4983346;28;20481;-83
2023/06/21 11:45:18;;;;;;;3.73;2.70;;;33.30;1.00;;;;;;4991642;28;20828;-87
2023/06/21 11:48:02;;;;;;;3.40;3.10;;;33.80;1.00;;;;;;4992131;28;20469;-82
2023/06/21 11:50:32;;;;;;;3.80;3.50;;;34.30;1.00;;;;;;4992107;28;20474;-86
2023/06/21 11:53:24;;;;;;;4.20;3.80;;;33.70;1.00;;;;;;4991190;28;20776;-89
2023/06/21 11:55:55;;;;;;;4.87;4.17;;;32.90;1.00;;;;;;4993970;28;20407;-87
2023/06/21 11:58:21;;;;;;;5.20;4.70;;;32.50;1.00;;;;;;4995403;28;20427;-83
2023/06/21 12:00:47;;;;;;;3.87;3.47;;;32.80;1.00;;;;;;4996142;28;20530;-85
2023/06/21 12:03:14;;;;;;;3.90;3.60;;;33.10;1.00;;;;;;4996728;28;20399;-87
2023/06/21 12:05:53;;;;;;;4.47;3.60;;;32.60;1.00;;;;;;4996353;28;20449;-86
2023/06/21 12:08:20;;;;;;;4.57;4.17;;;32.40;1.00;;;;;;4996337;28;20406;-82
2023/06/21 12:10:47;;;;;;;5.40;4.03;;;32.60;1.00;;;;;;4996135;28;20447;-82
2023/06/21 12:13:18;;;;;;;4.53;4.13;;;32.30;1.00;;;;;;4996307;28;20419;-83
2023/06/21 12:16:00;;;;;;;4.97;4.57;;;32.00;1.00;;;;;;4995248;28;20497;-91
2023/06/21 12:18:28;;;;;;;3.80;3.33;;;32.00;1.00;;;;;;4994975;28;20435;-82
2023/06/21 12:20:54;;;;;;;4.27;3.87;;;31.90;1.00;;;;;;4995776;28;20418;-83
2023/06/21 12:23:21;;;;;;;4.37;3.77;;;31.80;1.00;;;;;;4994361;28;20497;-83
2023/06/21 12:25:54;;;;;;;4.43;3.73;;;31.50;1.00;;;;;;4995343;28;21173;-82
2023/06/21 12:28:22;;;;;;;8.83;5.30;;;31.40;1.00;;;;;;4995769;28;20438;-86
2023/06/21 12:30:55;;;;;;;3.53;3.23;;;31.60;1.00;;;;;;4995539;28;20466;-82
2023/06/21 12:33:37;;;;;;;4.13;3.50;;;32.00;1.00;;;;;;4995911;28;20466;-82
2023/06/21 12:36:17;;;;;;;4.57;4.17;;;32.40;1.00;;;;;;4995113;28;20442;-81
2023/06/21 12:39:07;;;;;;;4.70;3.00;;;32.70;1.00;;;;;;4996588;28;20415;-82
2023/06/21 12:41:34;;;;;;;4.10;3.70;;;32.80;1.00;;;;;;4990961;28;20427;-88
2023/06/21 12:44:05;;;;;;;3.87;3.57;;;32.40;1.00;;;;;;4995841;28;20458;-83
2023/06/21 12:46:40;;;;;;;3.23;2.93;;;32.20;1.00;;;;;;4991523;28;20509;-80
2023/06/21 12:49:06;;;;;;;3.70;2.90;;;32.10;1.00;;;;;;4994598;28;20441;-81
2023/06/21 12:51:35;;;;;;;5.57;3.57;;;32.20;1.00;;;;;;4994288;28;20847;-83